Baltimore, MD

5:13 PM EST on March 06, 2015 (GMT -0500)
Baltimore-Washington International | Change Station
CLOSE
Current Station
Airport
Location: Baltimore,
Elevation: 154 ft
Nearby Weather Stations

Elev 154 ft 39.17 °N, 76.68 °W | Updated 19 minutes ago

Clear
Clear
25 °F
Feels Like 21 °F
N
4
Wind Variable Wind from SW

Today
High -- | Low -- °F
--% Chance of Precip.
Yesterday
High -- | Low -- °F
Precip. -- in
6:32 AM 6:03 PM
Full, 99% visible
Pressure 30.46 in
Visibility 10.0 miles
Clouds Few 25000 ft
Windchill 21 °F
Dew Point 5 °F
Humidity 43%
Rainfall 0.00 in
Snow Depth Not available.
UV 1 out of 12
Pollen 1.10 out of 12
Air Quality Not available.
Flu Activity Not available.
METAR KBWI 062154Z 22003KT 10SM FEW250 M04/M15 A3045 RMK AO2 SLP314 T10391150

More Conditions Fewer Conditions

Pressure 30.46 in
Visibility 10.0 miles
Clouds Few 25000 ft
Windchill 21 °F
Dew Point 5 °F
Humidity 43%
Rainfall 0.00 in
Snow Depth Not available.
UV 1 out of 12
Pollen 1.10 out of 12
Air Quality Not available.
Flu Activity Not available.
METAR KBWI 062154Z 22003KT 10SM FEW250 M04/M15 A3045 RMK AO2 SLP314 T10391150

More Conditions Fewer Conditions

10-Day Weather Forecast

Almanac

Astronomy

Mar. 06, 2015 Rise Set
Actual Time
Civil Twilight
Nautical Twilight
Astronomical Twilight
Moon
Length of Visible Light
Length of Day
Tomorrow will be .
, % of the Moon is Illuminated

Today's Extremes

State Highs State Lows

Community

WunderPhotos

Upload Photos

1,803,420 photos uploaded!

WunderBlogs® & News

Nearby

Air Quality

  Air Quality AQ Index Pollutant
Not available.

Snow Depth

Station Depth Elevation

Earthquake Activity

City Distance Mag. Time & Date
Minimum magnitude displayed is 2.5.

Coastal Water Temperatures

Place Temperature

Nearby Weather Stations